Latest Weather Observations for Armidale Airport

IDN60801

Issued at 10:33 am EDT Wednesday 1 April 2015 (issued every 30 minutes, with the page automatically refreshed every 10 minutes)

About weather observations | Map of weather stations | Latest weather observations for NSW | Other Formats
Station Details ID: 056238 Name: ARMIDALE AIRPORT AWS Lat: -30.53 Lon: 151.62 Height: 1079.0 m
Data from the previous 72 hours. | See also: Recent months for locations in New South Wales
Date/Time
EDT
Temp
°C
App
Temp
°C
Dew
Point
Rel
Hum
%
Delta-T
°C
Wind Press
QNH
hPa
Press
MSL
hPa
Rain
since 9 am
mm
Dir
 
Spd
km/h
Gust
km/h
Spd
kts
Gust
kts
01/10:30am 16.7 13.3 13.6 82 1.8 ENE 24 28 13 15 1027.4 1022.7 0.0
01/10:00am 16.1 13.7 14.3 89 1.1 ENE 20 26 11 14 1027.5 1022.8 0.0
01/09:30am 15.5 12.2 14.0 91 0.9 ENE 24 33 13 18 1027.2 1022.6 0.0
01/09:00am 14.3 11.8 14.0 98 0.2 E 20 26 11 14 1027.0 1022.4 0.6
01/08:30am 12.7 9.7 12.7 100 0.0 E 20 28 11 15 1026.9 1022.3 0.6
01/08:00am 11.8 9.1 11.8 100 0.0 E 17 20 9 11 1026.6 1021.9 0.6
01/07:51am 11.7 9.4 11.7 100 0.0 E 15 19 8 10 1026.5 1021.8 0.6
01/07:30am 11.6 8.9 11.6 100 0.0 E 17 22 9 12 1026.5 1021.8 0.6
01/07:00am 11.0 7.5 11.0 100 0.0 E 20 26 11 14 1026.2 1021.6 0.6
01/06:57am 11.0 7.5 11.0 100 0.0 E 20 26 11 14 1026.2 1021.6 0.6
01/06:52am 11.0 7.5 11.0 100 0.0 E 20 26 11 14 1026.2 1021.6 0.6
01/06:35am 10.4 7.3 10.4 100 0.0 E 17 20 9 11 1026.0 1021.3 0.6
01/06:30am 10.5 7.5 10.5 100 0.0 E 17 20 9 11 1025.9 1021.2 0.6
01/06:27am 10.5 7.5 10.5 100 0.0 E 17 20 9 11 1025.9 1021.2 0.6
01/06:24am 10.5 7.8 10.5 100 0.0 E 15 20 8 11 1025.9 1021.2 0.6
01/06:08am 10.5 7.8 10.5 100 0.0 E 15 17 8 9 1025.6 1020.9 0.6
01/06:00am 10.7 8.1 10.7 100 0.0 E 15 20 8 11 1025.5 1020.8 0.6
01/05:30am 10.7 7.7 10.7 100 0.0 E 17 20 9 11 1025.1 1020.4 0.6
01/05:00am 10.6 7.6 10.6 100 0.0 E 17 20 9 11 1025.1 1020.4 0.6
01/04:30am 10.7 7.7 10.7 100 0.0 E 17 20 9 11 1025.1 1020.4 0.6
01/04:28am 10.7 7.7 10.7 100 0.0 E 17 20 9 11 1025.1 1020.4 0.6
01/04:27am 10.7 7.7 10.7 100 0.0 E 17 20 9 11 1025.1 1020.4 0.6
01/04:00am 11.0 8.1 11.0 100 0.0 E 17 22 9 12 1025.2 1020.6 0.6
01/03:30am 11.3 7.9 11.3 100 0.0 E 20 24 11 13 1025.2 1020.6 0.6
01/03:29am 11.4 8.2 11.4 100 0.0 E 19 24 10 13 1025.2 1020.6 0.6
01/03:11am 11.3 8.4 11.1 99 0.1 E 17 20 9 11 1025.5 1020.8 0.6
01/03:00am 11.3 8.8 11.1 99 0.1 E 15 19 8 10 1025.5 1020.8 0.6
01/02:30am 11.3 8.4 11.1 99 0.1 E 17 20 9 11 1025.6 1020.9 0.6
01/02:00am 11.4 8.5 11.1 98 0.2 ESE 17 20 9 11 1026.0 1021.3 0.6
01/01:30am 11.9 8.6 11.6 98 0.2 E 20 26 11 14 1026.2 1021.6 0.6
01/01:00am 12.0 8.4 11.7 98 0.2 E 22 28 12 15 1026.2 1021.6 0.6
01/12:30am 12.1 8.9 11.9 99 0.1 ENE 20 26 11 14 1026.4 1021.7 0.6
01/12:00am 12.4 9.3 12.2 99 0.1 E 20 24 11 13 1026.4 1021.7 0.6
 
Date/Time
EDT
Temp
°C
App
Temp
°C
Dew
Point
Rel
Hum
%
Delta-T
°C
Wind Press
QNH
hPa
Press
MSL
hPa
Rain
since 9 am
mm
Dir
 
Spd
km/h
Gust
km/h
Spd
kts
Gust
kts
31/11:34pm 12.7 9.3 12.5 99 0.1 E 22 28 12 15 1026.4 1021.7 0.6
31/11:30pm 12.7 9.3 12.5 99 0.1 E 22 26 12 14 1026.4 1021.7 0.6
31/11:00pm 13.3 10.7 13.1 99 0.1 E 19 24 10 13 1026.5 1021.8 0.6
31/10:30pm 13.4 11.2 13.2 99 0.1 E 17 24 9 13 1026.7 1022.0 0.6
31/10:00pm 13.6 11.4 13.4 99 0.1 E 17 22 9 12 1026.9 1022.3 0.6
31/09:42pm 13.8 11.1 13.6 99 0.1 E 20 26 11 14 1027.0 1022.4 0.6
31/09:30pm 13.8 11.7 13.6 99 0.1 E 17 24 9 13 1026.9 1022.3 0.6
31/09:26pm 13.8 11.3 13.6 99 0.1 E 19 24 10 13 1026.9 1022.3 0.6
31/09:00pm 14.0 12.4 13.8 99 0.1 E 15 20 8 11 1026.8 1022.1 0.6
31/08:33pm 14.2 13.0 14.0 99 0.1 E 13 17 7 9 1026.8 1022.1 0.6
31/08:30pm 14.2 13.0 14.0 99 0.1 ENE 13 17 7 9 1026.8 1022.1 0.6
31/08:26pm 14.2 13.0 14.0 99 0.1 ENE 13 19 7 10 1026.7 1022.0 0.6
31/08:00pm 14.4 12.1 14.1 98 0.2 E 19 28 10 15 1026.5 1021.8 0.4
31/07:53pm 14.5 12.2 14.2 98 0.2 E 19 24 10 13 1026.4 1021.7 0.4
31/07:30pm 14.6 12.4 14.3 98 0.2 E 19 26 10 14 1026.0 1021.3 0.4
31/07:11pm 14.6 12.4 14.3 98 0.2 E 19 28 10 15 1025.7 1021.0 0.4
31/07:00pm 14.7 12.9 14.4 98 0.2 ESE 17 24 9 13 1025.6 1020.9 0.4
31/06:30pm 15.2 13.5 14.7 97 0.3 ESE 17 24 9 13 1025.4 1020.7 0.4
31/06:00pm 15.3 14.0 14.8 97 0.3 ESE 15 24 8 13 1025.1 1020.4 0.4
31/05:49pm 15.3 14.0 14.7 96 0.4 E 15 19 8 10 1025.1 1020.4 0.4
31/05:30pm 15.4 13.5 14.3 93 0.7 ESE 17 20 9 11 1024.9 1020.2 0.4
31/05:00pm 15.8 14.3 14.2 90 1.0 ESE 15 20 8 11 1024.8 1020.1 0.4
31/04:30pm 15.5 14.1 14.4 93 0.7 SE 15 22 8 12 1024.8 1020.1 0.4
31/04:00pm 15.2 14.0 14.1 93 0.7 E 13 20 7 11 1024.6 1019.9 0.4
31/03:30pm 15.0 13.6 13.4 90 0.9 ESE 13 19 7 10 1024.7 1020.0 0.4
31/03:00pm 16.3 11.7 12.3 77 2.3 E 28 37 15 20 1024.7 1020.0 0.2
31/02:30pm 17.6 14.4 13.1 75 2.7 SE 22 28 12 15 1024.7 1020.0 0.2
31/02:00pm 18.7 15.9 13.3 71 3.2 ESE 20 30 11 16 1024.7 1020.0 0.2
31/01:30pm 18.9 16.0 14.0 73 3.0 ESE 22 32 12 17 1025.2 1020.6 0.2
31/01:00pm 20.2 17.8 12.7 62 4.4 E 17 22 9 12 1025.7 1021.0 0.2
31/12:30pm 19.1 17.4 12.6 66 3.8 ENE 13 19 7 10 1026.2 1021.6 0.0
31/12:00pm 19.2 18.0 12.7 66 3.8 ENE 11 17 6 9 1026.7 1022.0 0.0
31/11:30am 18.1 17.2 13.8 76 2.6 ENE 11 17 6 9 1026.9 1022.3 0.0
31/11:00am 17.2 16.0 14.1 82 1.9 ENE 13 17 7 9 1027.4 1022.7 0.0
31/10:34am 17.0 15.9 14.3 84 1.6 ENE 13 17 7 9 1027.4 1022.7 0.0
31/10:30am 17.0 16.6 15.2 89 1.1 ENE 11 15 6 8 1027.4 1022.7 0.0
31/10:19am 16.3 16.0 14.5 89 1.1 E 9 15 5 8 1027.5 1022.8 0.0
31/10:11am 16.3 16.1 15.7 96 0.4 E 11 15 6 8 1027.4 1022.7 0.0
31/10:00am 15.4 15.0 15.1 98 0.2 E 11 13 6 7 1027.5 1022.8 0.0
31/09:50am 15.0 14.8 14.8 99 0.1 E 9 13 5 7 1027.4 1022.7 0.0
31/09:30am 14.7 13.7 14.5 99 0.1 ENE 13 17 7 9 1027.2 1022.6 0.0
31/09:00am 14.1 12.9 14.1 100 0.0 E 13 15 7 8 1026.9 1022.3 1.6
31/08:30am 13.5 12.5 13.5 100 0.0 ENE 11 13 6 7 1026.7 1022.0 1.6
31/08:00am 13.3 11.9 13.3 100 0.0 E 13 13 7 7 1026.2 1021.6 1.6
31/07:30am 13.1 12.0 13.1 100 0.0 ESE 11 13 6 7 1026.0 1021.3 1.6
31/07:25am 13.1 12.0 13.1 100 0.0 E 11 13 6 7 1026.0 1021.3 1.6
31/07:19am 13.1 12.0 13.1 100 0.0 ESE 11 13 6 7 1025.9 1021.2 1.6
31/07:00am 13.2 12.1 13.2 100 0.0 E 11 15 6 8 1025.8 1021.1 1.6
31/06:30am 13.2 11.7 13.2 100 0.0 E 13 15 7 8 1025.6 1020.9 1.6
31/06:00am 13.2 11.4 13.2 100 0.0 ENE 15 17 8 9 1025.4 1020.7 1.6
31/05:30am 13.1 12.0 13.1 100 0.0 E 11 13 6 7 1025.4 1020.7 1.6
31/05:17am 13.1 12.0 13.1 100 0.0 E 11 13 6 7 1025.4 1020.7 1.6
31/05:00am 13.0 12.2 13.0 100 0.0 ESE 9 11 5 6 1025.4 1020.7 1.6
31/04:30am 13.1 12.4 13.1 100 0.0 SE 9 11 5 6 1025.4 1020.7 1.6
31/04:19am 13.0 12.2 13.0 100 0.0 ESE 9 13 5 7 1025.4 1020.7 1.6
31/04:01am 12.9 11.7 12.9 100 0.0 ESE 11 15 6 8 1025.5 1020.8 1.6
31/04:00am 12.9 11.7 12.9 100 0.0 ESE 11 15 6 8 1025.5 1020.8 1.6
31/03:30am 12.8 11.2 12.8 100 0.0 SE 13 15 7 8 1025.6 1020.9 1.6
31/03:00am 12.8 11.6 12.8 100 0.0 SE 11 13 6 7 1025.7 1021.0 1.6
31/02:50am 12.8 11.6 12.8 100 0.0 SE 11 13 6 7 1025.7 1021.0 1.6
31/02:30am 12.8 11.9 12.6 99 0.1 SE 9 11 5 6 1025.9 1021.2 1.6
31/02:00am 13.3 12.3 13.3 100 0.0 E 11 13 6 7 1026.0 1021.3 1.6
31/01:30am 13.5 12.9 13.5 100 0.0 E 9 11 5 6 1026.5 1021.8 1.6
31/01:22am 13.5 12.9 13.5 100 0.0 E 9 11 5 6 1026.5 1021.8 1.6
31/01:00am 13.6 12.7 13.6 100 0.0 ENE 11 11 6 6 1026.6 1021.9 1.6
31/12:47am 13.6 12.7 13.6 100 0.0 ENE 11 13 6 7 1026.7 1022.0 1.2
31/12:30am 13.7 12.7 13.5 99 0.1 ENE 11 13 6 7 1026.7 1022.0 1.2
31/12:00am 13.8 12.5 13.6 99 0.1 E 13 15 7 8 1026.8 1022.1 1.2
 
Date/Time
EDT
Temp
°C
App
Temp
°C
Dew
Point
Rel
Hum
%
Delta-T
°C
Wind Press
QNH
hPa
Press
MSL
hPa
Rain
since 9 am
mm
Dir
 
Spd
km/h
Gust
km/h
Spd
kts
Gust
kts
30/11:30pm 14.0 13.5 13.8 99 0.1 E 9 11 5 6 1027.0 1022.4 1.2
30/11:00pm 14.2 14.1 14.0 99 0.1 ESE 7 9 4 5 1027.2 1022.6 1.2
30/10:30pm 14.3 14.3 14.1 99 0.1 ESE 7 9 4 5 1027.4 1022.7 0.6
30/10:00pm 14.3 14.8 14.0 98 0.2 E 4 6 2 3 1027.5 1022.8 0.2
30/09:30pm 14.5 14.7 14.2 98 0.2 S 6 7 3 4 1027.2 1022.6 0.2
30/09:00pm 14.5 14.7 14.2 98 0.2 W 6 7 3 4 1027.1 1022.5 0.0
30/08:30pm 15.1 15.1 13.6 91 0.9 SSE 6 7 3 4 1027.0 1022.4 0.0
30/08:00pm 15.1 15.4 13.3 89 1.1 SE 4 7 2 4 1026.8 1022.1 0.0
30/07:30pm 15.4 16.5 13.4 88 1.2 CALM 0 0 0 0 1026.5 1021.8 0.0
30/07:00pm 15.8 17.0 13.8 88 1.2 CALM 0 0 0 0 1026.2 1021.6 0.0
30/06:30pm 16.0 16.0 13.5 85 1.5 W 6 6 3 3 1026.1 1021.5 0.0
30/06:00pm 16.5 16.3 13.0 80 2.0 WNW 6 7 3 4 1025.8 1021.1 0.0
30/05:30pm 16.5 15.7 12.8 79 2.2 WSW 9 11 5 6 1025.5 1020.8 0.0
30/05:00pm 16.7 16.1 13.4 81 1.9 SW 9 13 5 7 1025.1 1020.4 0.0
30/04:30pm 16.7 15.8 13.6 82 1.8 WSW 11 15 6 8 1025.2 1020.6 0.0
30/04:00pm 16.4 16.1 13.3 82 1.8 WNW 7 9 4 5 1025.4 1020.7 0.0
30/03:30pm 16.4 15.3 13.1 81 1.9 W 11 15 6 8 1025.2 1020.6 0.0
30/03:07pm 16.2 15.2 13.5 84 1.6 WSW 11 15 6 8 1025.6 1020.9 0.0
30/03:00pm 16.1 14.8 13.6 85 1.5 SW 13 15 7 8 1025.5 1020.8 0.0
30/02:30pm 15.9 13.8 13.7 87 1.3 WSW 17 20 9 11 1025.7 1021.0 0.0
30/02:00pm 15.9 13.5 13.9 88 1.2 WSW 19 24 10 13 1026.0 1021.3 0.0
30/01:30pm 15.5 12.8 14.5 94 0.6 W 22 28 12 15 1026.5 1021.8 0.0
30/01:12pm 15.1 12.4 14.6 97 0.3 WSW 22 28 12 15 1026.6 1021.9 0.0
30/01:00pm 14.9 12.5 14.3 96 0.4 WSW 20 28 11 15 1026.6 1021.9 0.0
30/12:30pm 15.4 10.7 13.1 86 1.3 W 30 41 16 22 1026.9 1022.3 0.0
30/12:15pm 17.4 12.7 11.9 70 3.2 WNW 28 39 15 21 1026.8 1022.1 0.0
30/12:00pm 19.5 17.3 12.0 62 4.4 NW 15 20 8 11 1026.8 1022.1 0.0
30/11:30am 19.5 19.0 12.5 64 4.1 NW 7 15 4 8 1027.0 1022.4 0.0
30/11:00am 18.5 18.0 12.5 68 3.5 N 7 11 4 6 1027.1 1022.5 0.0
30/10:30am 17.8 16.4 12.3 70 3.2 ENE 11 13 6 7 1027.1 1022.5 0.0
30/10:00am 16.6 15.4 11.7 73 2.8 ENE 9 11 5 6 1027.4 1022.7 0.0
30/09:30am 16.8 17.5 12.3 75 2.6 CALM 0 0 0 0 1027.2 1022.6 0.0
30/09:00am 15.8 16.7 12.9 83 1.7 CALM 0 0 0 0 1027.1 1022.5 0.2
30/08:30am 14.5 14.0 12.2 86 1.3 WNW 6 7 3 4 1027.0 1022.4 0.2
30/08:00am 13.4 12.5 11.5 88 1.1 WNW 7 9 4 5 1026.5 1021.8 0.2
30/07:30am 12.1 11.4 11.3 95 0.4 WSW 6 9 3 5 1026.1 1021.5 0.2
30/07:00am 11.8 10.9 11.2 96 0.3 NW 7 13 4 7 1025.9 1021.2 0.2
30/06:30am 12.5 10.3 12.2 98 0.2 NE 15 17 8 9 1025.7 1021.0 0.2
30/06:00am 12.2 9.9 11.9 98 0.2 NE 15 15 8 8 1025.1 1020.4 0.2
30/05:30am 12.3 10.1 12.0 98 0.2 ENE 15 17 8 9 1024.8 1020.1 0.2
30/05:00am 12.3 10.1 12.0 98 0.2 ENE 15 17 8 9 1024.7 1020.0 0.2
30/04:30am 10.9 7.9 10.6 98 0.2 ENE 17 17 9 9 1024.6 1019.9 0.2
30/04:00am 12.0 10.1 11.8 99 0.1 ENE 13 15 7 8 1024.7 1020.0 0.2
30/03:30am 11.7 10.4 11.4 98 0.2 ENE 9 9 5 5 1025.1 1020.4 0.2
30/03:00am 12.4 10.6 12.2 99 0.1 E 13 15 7 8 1024.9 1020.2 0.2
30/02:30am 12.4 11.0 12.2 99 0.1 E 11 13 6 7 1025.2 1020.6 0.2
30/02:00am 12.5 11.5 12.3 99 0.1 ESE 9 11 5 6 1025.6 1020.9 0.2
30/01:30am 12.4 10.6 12.2 99 0.1 E 13 15 7 8 1025.7 1021.0 0.2
30/01:00am 11.5 9.8 11.2 98 0.2 E 11 13 6 7 1025.9 1021.2 0.2
30/12:30am 13.3 12.2 13.1 99 0.1 E 11 13 6 7 1026.2 1021.6 0.2
30/12:00am 13.1 12.6 12.8 98 0.2 E 7 9 4 5 1026.4 1021.7 0.2
 
Date/Time
EDT
Temp
°C
App
Temp
°C
Dew
Point
Rel
Hum
%
Delta-T
°C
Wind Press
QNH
hPa
Press
MSL
hPa
Rain
since 9 am
mm
Dir
 
Spd
km/h
Gust
km/h
Spd
kts
Gust
kts
29/11:30pm 14.4 13.6 14.1 98 0.2 E 11 15 6 8 1026.2 1021.6 0.2
29/11:00pm 14.8 13.3 13.2 90 0.9 ESE 13 17 7 9 1026.2 1021.6 0.2
29/10:30pm 14.7 12.5 10.9 78 2.1 ESE 13 15 7 8 1026.4 1021.7 0.2
29/10:00pm 14.9 11.6 6.5 57 4.3 SE 13 15 7 8 1026.5 1021.8 0.2
29/09:30pm 15.4 13.3 5.6 52 5.0 NW 6 7 3 4 1026.2 1021.6 0.2
29/09:00pm 15.1 12.8 5.6 53 4.8 NW 7 9 4 5 1025.9 1021.2 0.2
29/08:30pm 15.8 13.6 6.0 52 5.0 NW 7 9 4 5 1025.7 1021.0 0.2
29/08:00pm 16.2 13.9 5.8 50 5.3 WNW 7 9 4 5 1025.9 1021.2 0.2
29/07:30pm 16.8 14.2 6.0 49 5.6 W 9 9 5 5 1025.5 1020.8 0.2
29/07:00pm 18.7 15.7 5.9 43 6.6 WSW 11 15 6 8 1025.1 1020.4 0.2
29/06:30pm 21.1 17.8 6.2 38 7.9 WSW 13 17 7 9 1024.8 1020.1 0.2
29/06:00pm 22.1 18.4 6.3 36 8.4 WNW 15 20 8 11 1024.5 1019.8 0.2
29/05:30pm 22.0 18.8 7.0 38 8.1 NW 13 20 7 11 1024.4 1019.6 0.2
29/05:00pm 21.7 17.6 6.0 36 8.3 NNW 17 24 9 13 1024.1 1019.4 0.2
29/04:30pm 22.6 19.3 6.4 35 8.7 WNW 13 20 7 11 1023.9 1019.2 0.2
29/04:00pm 22.6 18.4 3.7 29 9.6 WSW 15 20 8 11 1024.1 1019.4 0.2
29/03:30pm 22.2 18.0 3.8 30 9.4 WNW 15 22 8 12 1024.4 1019.6 0.2
29/03:00pm 22.3 17.7 5.7 34 8.8 W 19 28 10 15 1024.7 1020.0 0.2
29/02:30pm 23.3 19.6 6.1 33 9.2 WNW 15 28 8 15 1024.9 1020.2 0.2
29/02:00pm 22.2 17.4 5.6 34 8.7 W 20 30 11 16 1025.1 1020.4 0.2
29/01:30pm 22.4 18.7 6.2 35 8.7 W 15 24 8 13 1025.2 1020.6 0.2
29/01:00pm 22.4 17.7 6.2 35 8.6 W 20 32 11 17 1025.7 1021.0 0.2
29/12:30pm 22.0 18.3 7.8 40 7.8 WNW 17 26 9 14 1025.9 1021.2 0.2
29/12:00pm 21.7 17.8 8.6 43 7.3 WNW 19 30 10 16 1026.4 1021.7 0.2
29/11:30am 21.2 18.2 9.1 46 6.8 NW 15 24 8 13 1026.2 1021.6 0.0
29/11:00am 19.6 17.2 10.0 54 5.4 WNW 13 19 7 10 1026.5 1021.8 0.0

Other Formats:

Comma delimited format used in spreadsheet applications
http://www.bom.gov.au/fwo/IDN60801/IDN60801.95773.axf

JavaScript Object Notation format (JSON) in row-major order
http://www.bom.gov.au/fwo/IDN60801/IDN60801.95773.json